Time;durP1;ratioP1;P1;durP2;ratioP2;P2;SDS_P1;SDS_P2;PMS_P1;PMS_P2;Temp;Humidity;BMP_temperature;BMP_pressure;BME280_temperature;BME280_humidity;BME280_pressure;Samples;Min_cycle;Max_cycle;Signal;HPM_P1;HPM_P2
2023/05/09 00:00:11;;;;;;;12.35;7.90;;;;;;;7.98;68.79;100665.81;5111988;28;20027;-80
2023/05/09 00:02:38;;;;;;;11.75;8.13;;;;;;;8.17;68.94;100702.59;5093981;28;20068;-80
2023/05/09 00:05:04;;;;;;;12.00;7.35;;;;;;;8.02;69.25;100670.94;5111945;28;20066;-80
2023/05/09 00:07:33;;;;;;;9.73;7.22;;;;;;;8.04;69.19;100674.34;5111873;28;20020;-80
2023/05/09 00:09:59;;;;;;;11.65;7.70;;;;;;;8.03;69.77;100663.13;5111605;28;20031;-80
2023/05/09 00:12:26;;;;;;;10.77;7.03;;;;;;;7.94;69.60;100669.34;5112140;28;20023;-80
2023/05/09 00:14:53;;;;;;;15.77;8.85;;;;;;;7.89;69.94;100659.94;5112004;28;20042;-80
2023/05/09 00:17:21;;;;;;;10.40;7.38;;;;;;;7.93;69.71;100654.66;5111816;28;20125;-80
2023/05/09 00:19:47;;;;;;;11.18;7.03;;;;;;;7.88;70.06;100651.31;5114857;28;20375;-80
2023/05/09 00:22:13;;;;;;;10.90;7.90;;;;;;;8.02;70.10;100681.31;5096985;28;20486;-80
2023/05/09 00:24:38;;;;;;;10.35;7.50;;;;;;;8.03;70.16;100685.63;5115389;28;20031;-80
2023/05/09 00:27:04;;;;;;;10.93;8.15;;;;;;;7.69;69.86;100624.03;5115237;28;20030;-80
2023/05/09 00:29:29;;;;;;;12.30;7.28;;;;;;;7.98;70.27;100659.78;5115604;28;20123;-80
2023/05/09 00:31:54;;;;;;;8.88;7.43;;;;;;;7.88;70.26;100647.84;5115103;28;20015;-80
2023/05/09 00:34:20;;;;;;;11.82;7.90;;;;;;;7.95;70.21;100663.25;5115312;28;20039;-80
2023/05/09 00:36:45;;;;;;;9.90;7.57;;;;;;;7.89;70.46;100657.38;5115284;28;20079;-80
2023/05/09 00:39:12;;;;;;;10.07;7.30;;;;;;;8.00;70.25;100657.97;5114936;28;20463;-80
2023/05/09 00:41:37;;;;;;;11.73;7.05;;;;;;;7.99;70.07;100662.31;5115405;28;20035;-80
2023/05/09 00:44:03;;;;;;;12.07;8.05;;;;;;;7.86;70.21;100637.50;5115001;28;20032;-80
2023/05/09 00:46:28;;;;;;;10.10;7.55;;;;;;;7.82;70.60;100648.84;5115148;28;20019;-80
2023/05/09 00:48:54;;;;;;;11.57;8.40;;;;;;;7.85;70.55;100646.19;5115368;28;20020;-80
2023/05/09 00:51:21;;;;;;;11.32;7.45;;;;;;;7.86;70.71;100655.66;5114866;28;20518;-80
2023/05/09 00:53:46;;;;;;;15.00;7.30;;;;;;;7.80;70.81;100650.63;5115187;28;20038;-80
2023/05/09 00:56:13;;;;;;;10.95;7.25;;;;;;;7.84;70.87;100651.41;5114898;28;20031;-80
2023/05/09 00:58:39;;;;;;;11.30;7.53;;;;;;;7.87;70.93;100659.13;5114756;28;20027;-80
2023/05/09 01:01:04;;;;;;;11.95;8.52;;;;;;;7.63;71.21;100634.53;5114959;28;20039;-80
2023/05/09 01:03:30;;;;;;;9.43;7.07;;;;;;;7.69;71.35;100647.34;5114836;28;20028;-80
2023/05/09 01:06:02;;;;;;;11.63;6.90;;;;;;;7.70;71.73;100654.25;5114729;28;20019;-80
2023/05/09 01:08:55;;;;;;;15.02;9.10;;;;;;;7.81;71.40;100649.72;5096251;28;20418;-80
2023/05/09 01:11:40;;;;;;;31.75;17.95;;;;;;;7.65;71.96;100656.94;5114779;28;20081;-80
2023/05/09 01:14:32;;;;;;;19.35;12.20;;;;;;;7.64;72.28;100651.78;5114406;28;20463;-80
2023/05/09 01:17:07;;;;;;;22.05;14.52;;;;;;;7.55;72.59;100639.00;5114309;28;20102;-80
2023/05/09 01:19:51;;;;;;;21.08;11.77;;;;;;;7.60;72.17;100650.97;5114611;28;20069;-80
2023/05/09 01:22:18;;;;;;;18.35;11.40;;;;;;;7.50;72.58;100639.94;5114265;28;20030;-80
2023/05/09 01:24:55;;;;;;;16.58;9.13;;;;;;;7.53;72.42;100639.00;5114249;28;20506;-80
2023/05/09 01:27:26;;;;;;;14.48;8.68;;;;;;;7.46;72.72;100633.09;5114010;28;20035;-80
2023/05/09 01:29:56;;;;;;;14.38;9.15;;;;;;;7.45;72.93;100638.28;5113189;28;20501;-80
2023/05/09 01:32:24;;;;;;;11.00;8.30;;;;;;;7.47;72.56;100636.53;5114036;28;20027;-80
2023/05/09 01:34:53;;;;;;;17.15;10.25;;;;;;;7.20;72.71;100592.06;5114358;28;20069;-80
2023/05/09 01:37:27;;;;;;;13.65;8.65;;;;;;;7.34;72.94;100624.69;5113785;28;20027;-80
2023/05/09 01:39:57;;;;;;;14.80;8.93;;;;;;;7.15;73.12;100598.22;5113888;28;20023;-80
2023/05/09 01:42:25;;;;;;;14.98;8.40;;;;;;;7.20;72.89;100607.63;5113856;28;20509;-80
2023/05/09 01:44:53;;;;;;;14.75;9.13;;;;;;;7.18;73.39;100616.31;5113942;28;20023;-80
2023/05/09 01:47:19;;;;;;;15.13;10.35;;;;;;;7.32;72.89;100629.03;5113629;28;20031;-80
2023/05/09 01:49:46;;;;;;;11.52;7.93;;;;;;;7.32;73.30;100636.78;5113768;28;20024;-80
2023/05/09 01:52:17;;;;;;;13.73;8.27;;;;;;;7.25;73.72;100623.97;5113430;28;20041;-80
2023/05/09 01:54:44;;;;;;;17.40;9.97;;;;;;;7.12;73.59;100621.59;5113948;28;20069;-80
2023/05/09 01:57:11;;;;;;;15.32;10.32;;;;;;;7.23;73.44;100622.25;5113527;28;20421;-80
2023/05/09 01:59:40;;;;;;;17.92;10.68;;;;;;;6.91;73.87;100568.41;5113713;28;20020;-80
2023/05/09 02:02:06;;;;;;;17.40;10.02;;;;;;;6.96;74.00;100584.75;5113721;28;20034;-80
2023/05/09 02:04:34;;;;;;;17.45;10.18;;;;;;;6.94;74.48;100602.03;5113474;28;20495;-80
2023/05/09 02:07:00;;;;;;;18.15;10.90;;;;;;;7.04;74.67;100626.03;5113719;28;20027;-80
2023/05/09 02:09:26;;;;;;;21.77;12.15;;;;;;;7.02;74.58;100614.88;5113857;28;20053;-80
2023/05/09 02:11:52;;;;;;;16.27;9.90;;;;;;;6.99;74.43;100618.34;5113670;28;20413;-80
2023/05/09 02:14:18;;;;;;;15.35;9.35;;;;;;;6.92;74.66;100603.81;5113243;28;20078;-80
2023/05/09 02:16:43;;;;;;;18.02;9.48;;;;;;;7.02;74.56;100610.53;5113237;28;20505;-80
2023/05/09 02:19:08;;;;;;;14.15;9.07;;;;;;;6.90;74.76;100596.03;5112927;28;20102;-80
2023/05/09 02:21:34;;;;;;;16.38;9.95;;;;;;;6.95;75.09;100602.03;5113372;28;20063;-80
2023/05/09 02:24:00;;;;;;;14.95;9.98;;;;;;;6.89;74.50;100583.97;5113297;28;20501;-80
2023/05/09 02:26:27;;;;;;;15.88;9.77;;;;;;;6.84;74.91;100587.53;5112913;28;20197;-80
2023/05/09 02:28:54;;;;;;;19.65;10.25;;;;;;;6.81;75.49;100597.94;5113363;28;20103;-80
2023/05/09 02:31:22;;;;;;;15.02;9.25;;;;;;;6.82;75.29;100600.50;5112999;28;20034;-80
2023/05/09 02:33:50;;;;;;;17.30;10.30;;;;;;;6.90;75.20;100602.97;5112774;28;20028;-80
2023/05/09 02:36:17;;;;;;;18.55;9.68;;;;;;;6.98;75.43;100622.66;5113029;28;20487;-80
2023/05/09 02:38:43;;;;;;;12.10;8.85;;;;;;;6.93;75.27;100624.50;5112951;28;20042;-80
2023/05/09 02:41:13;;;;;;;17.33;10.07;;;;;;;6.75;75.58;100597.16;5112544;28;20027;-80
2023/05/09 02:43:38;;;;;;;16.15;10.65;;;;;;;6.73;76.06;100591.13;5112892;28;20024;-80
2023/05/09 02:46:03;;;;;;;15.93;9.52;;;;;;;6.68;76.14;100597.28;5112408;28;20482;-80
2023/05/09 02:48:29;;;;;;;13.02;8.30;;;;;;;6.61;76.09;100585.28;5113010;28;20028;-80
2023/05/09 02:50:54;;;;;;;14.02;8.57;;;;;;;6.76;76.37;100598.00;5112889;28;20370;-80
2023/05/09 02:53:19;;;;;;;13.25;8.88;;;;;;;6.81;76.36;100616.06;5112568;28;20420;-80
2023/05/09 02:55:45;;;;;;;12.82;9.13;;;;;;;6.76;76.45;100605.78;5112739;28;20028;-80
2023/05/09 02:58:10;;;;;;;21.40;11.10;;;;;;;6.67;76.07;100587.81;5112346;28;20032;-80
2023/05/09 03:00:35;;;;;;;14.25;9.25;;;;;;;6.68;76.52;100605.03;5112561;28;20055;-80
2023/05/09 03:03:01;;;;;;;13.98;9.10;;;;;;;6.71;76.87;100615.34;5112455;28;20032;-80
2023/05/09 03:05:27;;;;;;;14.23;9.52;;;;;;;6.47;77.00;100565.66;5112440;28;20027;-80
2023/05/09 03:07:52;;;;;;;15.18;9.80;;;;;;;6.58;76.90;100590.53;5112533;28;20501;-80
2023/05/09 03:10:18;;;;;;;16.20;9.73;;;;;;;6.39;76.81;100564.91;5112277;28;20103;-80
2023/05/09 03:12:43;;;;;;;12.43;9.07;;;;;;;6.47;76.74;100562.22;5112450;28;20019;-80
2023/05/09 03:15:08;;;;;;;13.05;8.98;;;;;;;6.46;77.05;100569.13;5112098;28;20099;-80
2023/05/09 03:17:34;;;;;;;13.77;8.63;;;;;;;6.39;76.84;100554.56;5112168;28;20100;-80
2023/05/09 03:20:00;;;;;;;14.80;11.43;;;;;;;6.58;77.11;100593.13;5112505;28;20150;-80
2023/05/09 03:22:25;;;;;;;13.00;9.82;;;;;;;6.45;76.68;100557.09;5112259;28;20531;-80
2023/05/09 03:24:51;;;;;;;17.88;11.10;;;;;;;6.42;76.85;100558.84;5112368;28;20055;-80
2023/05/09 03:27:16;;;;;;;17.65;13.27;;;;;;;6.60;76.93;100588.78;5112087;28;20136;-80
2023/05/09 03:29:41;;;;;;;16.92;13.25;;;;;;;6.62;76.95;100577.53;5112223;28;20023;-80
2023/05/09 03:32:07;;;;;;;15.50;11.20;;;;;;;6.74;76.81;100589.41;5111900;28;20460;-79
2023/05/09 03:34:32;;;;;;;21.60;12.45;;;;;;;6.70;76.77;100577.38;5112214;28;20035;-79
2023/05/09 03:36:58;;;;;;;17.80;10.00;;;;;;;6.62;76.72;100574.09;5112570;28;20455;-78
2023/05/09 03:39:23;;;;;;;14.85;9.60;;;;;;;6.79;76.31;100584.19;5111940;28;20074;-79
2023/05/09 03:41:48;;;;;;;16.90;10.35;;;;;;;6.65;76.19;100548.97;5112232;28;20026;-79
2023/05/09 03:44:14;;;;;;;25.95;16.48;;;;;;;6.48;75.93;100528.53;5111987;28;20028;-79
2023/05/09 03:46:39;;;;;;;15.07;10.10;;;;;;;6.66;76.48;100565.41;5112011;28;20027;-79
2023/05/09 03:49:05;;;;;;;14.75;9.43;;;;;;;6.61;76.31;100541.28;5112517;28;20081;-79
2023/05/09 03:51:31;;;;;;;14.70;9.85;;;;;;;6.86;76.38;100581.44;5112020;28;20027;-79
2023/05/09 03:53:56;;;;;;;13.82;10.23;;;;;;;6.82;75.94;100566.81;5114201;28;20034;-80
2023/05/09 03:56:22;;;;;;;16.33;9.40;;;;;;;6.80;76.42;100571.19;5115818;28;20102;-79
2023/05/09 03:58:47;;;;;;;15.05;9.88;;;;;;;6.83;75.98;100539.22;5115967;28;20028;-80
2023/05/09 04:01:14;;;;;;;13.45;9.10;;;;;;;7.13;75.60;100581.88;5115586;28;20045;-80
2023/05/09 04:03:40;;;;;;;11.90;7.95;;;;;;;7.48;75.07;100581.22;5097774;28;20471;-80
2023/05/09 04:06:05;;;;;;;10.02;7.40;;;;;;;7.64;73.65;100561.88;5115968;28;20022;-80
2023/05/09 04:08:31;;;;;;;10.15;7.82;;;;;;;8.18;72.57;100574.59;5115471;28;20528;-80
2023/05/09 04:10:57;;;;;;;9.68;6.75;;;;;;;9.06;69.83;100583.81;5115777;28;20055;-81
2023/05/09 04:13:22;;;;;;;19.40;11.40;;;;;;;10.13;66.40;100578.22;5115452;28;20070;-81
2023/05/09 04:15:48;;;;;;;12.18;9.63;;;;;;;10.65;63.68;100553.16;5115815;28;20032;-81
2023/05/09 04:18:13;;;;;;;19.63;15.40;;;;;;;10.83;62.48;100553.47;5115212;28;20073;-80
2023/05/09 04:20:38;;;;;;;9.93;8.13;;;;;;;10.79;62.61;100563.16;5115694;28;20119;-81
2023/05/09 04:23:04;;;;;;;10.52;7.00;;;;;;;10.73;63.13;100578.97;5115847;28;20517;-81
2023/05/09 04:25:30;;;;;;;10.18;7.47;;;;;;;10.55;63.25;100579.59;5115281;28;20119;-81
2023/05/09 04:27:56;;;;;;;9.68;6.43;;;;;;;10.55;63.24;100584.78;5097182;28;20082;-81
2023/05/09 04:30:22;;;;;;;11.18;8.90;;;;;;;11.14;62.29;100595.88;5115032;28;20409;-81
2023/05/09 04:32:48;;;;;;;9.05;6.90;;;;;;;11.73;60.28;100579.88;5115572;28;20046;-81
2023/05/09 04:35:14;;;;;;;8.48;6.75;;;;;;;12.76;57.15;100572.47;5115074;28;20134;-81
2023/05/09 04:37:40;;;;;;;9.50;6.65;;;;;;;13.17;56.07;100537.59;5115577;28;20115;-81
2023/05/09 04:40:07;;;;;;;12.73;6.35;;;;;;;13.22;55.49;100553.97;5115340;28;20115;-81
2023/05/09 04:42:33;;;;;;;8.90;6.90;;;;;;;13.21;55.72;100567.94;5114907;28;20020;-81
2023/05/09 04:44:59;;;;;;;11.95;6.45;;;;;;;12.68;56.76;100557.09;5096959;28;20436;-81
2023/05/09 04:47:25;;;;;;;8.70;6.93;;;;;;;12.11;58.06;100569.78;5115057;28;20020;-81
2023/05/09 04:49:50;;;;;;;8.63;6.60;;;;;;;11.93;58.82;100575.72;5115481;28;20035;-81
2023/05/09 04:52:16;;;;;;;10.82;7.18;;;;;;;12.03;58.52;100571.84;5114859;28;20058;-81
2023/05/09 04:54:41;;;;;;;8.63;6.28;;;;;;;12.53;57.35;100540.28;5114981;28;20060;-81
2023/05/09 04:57:07;;;;;;;9.27;6.30;;;;;;;12.91;56.16;100553.53;5114837;28;20020;-81
2023/05/09 04:59:32;;;;;;;9.10;6.93;;;;;;;14.37;53.90;100563.63;5114668;28;20039;-82
2023/05/09 05:01:58;;;;;;;8.23;5.82;;;;;;;15.09;52.22;100568.81;5115086;28;20024;-81
2023/05/09 05:04:23;;;;;;;9.48;8.20;;;;;;;14.90;51.98;100553.16;5114593;28;20027;-81
2023/05/09 05:06:48;;;;;;;16.40;12.15;;;;;;;13.69;53.76;100571.09;5114793;28;20471;-81
2023/05/09 05:09:14;;;;;;;15.13;8.45;;;;;;;13.18;54.62;100575.91;5114619;28;20024;-82
2023/05/09 05:11:39;;;;;;;10.30;7.22;;;;;;;12.45;56.26;100545.81;5114633;28;20054;-81
2023/05/09 05:14:05;;;;;;;10.68;7.50;;;;;;;12.49;57.47;100577.91;5114541;27;20081;-81
2023/05/09 05:16:30;;;;;;;10.95;7.45;;;;;;;13.52;55.95;100578.84;5114431;28;20478;-81
2023/05/09 05:18:55;;;;;;;10.75;7.30;;;;;;;14.51;52.96;100586.59;5114370;28;20031;-82
2023/05/09 05:21:21;;;;;;;12.07;7.35;;;;;;;14.87;51.98;100555.06;5114301;28;20041;-82
2023/05/09 05:23:46;;;;;;;10.65;7.43;;;;;;;15.71;50.74;100574.38;5114464;28;20034;-82
2023/05/09 05:26:11;;;;;;;11.75;6.97;;;;;;;15.39;50.77;100541.94;5114355;28;20058;-82
2023/05/09 05:28:37;;;;;;;9.35;7.10;;;;;;;14.80;52.33;100538.81;5113959;28;20062;-82
2023/05/09 05:31:02;;;;;;;10.15;7.25;;;;;;;14.80;52.73;100551.91;5114196;28;20374;-82
2023/05/09 05:33:27;;;;;;;8.25;6.90;;;;;;;14.52;53.47;100538.47;5114073;28;20058;-82
2023/05/09 05:35:53;;;;;;;9.13;7.82;;;;;;;14.52;53.19;100560.28;5114255;28;20166;-82
2023/05/09 05:38:18;;;;;;;8.90;7.60;;;;;;;15.43;52.60;100561.84;5114006;28;20015;-82
2023/05/09 05:40:43;;;;;;;9.80;8.05;;;;;;;16.21;50.56;100537.47;5114066;28;20024;-82
2023/05/09 05:43:09;;;;;;;10.10;7.63;;;;;;;16.70;49.81;100570.69;5113980;28;20249;-82
2023/05/09 05:45:34;;;;;;;10.38;7.78;;;;;;;16.10;50.41;100550.38;5113510;28;20104;-82
2023/05/09 05:48:01;;;;;;;10.27;7.50;;;;;;;15.68;52.10;100561.44;5095741;28;20019;-82
2023/05/09 05:50:26;;;;;;;10.98;7.97;;;;;;;15.44;52.47;100548.63;5113710;28;20077;-82
2023/05/09 05:52:52;;;;;;;8.60;7.00;;;;;;;15.82;52.82;100544.94;5114147;28;20023;-82
2023/05/09 05:55:17;;;;;;;7.57;6.78;;;;;;;15.77;52.37;100537.31;5113579;28;20067;-82
2023/05/09 05:57:42;;;;;;;8.00;6.78;;;;;;;16.33;51.00;100528.06;5113672;28;20046;-82
2023/05/09 06:00:10;;;;;;;12.50;7.32;;;;;;;16.65;50.39;100509.59;5113581;28;20055;-82
2023/05/09 06:02:35;;;;;;;9.70;7.32;;;;;;;16.74;50.52;100545.09;5113511;28;20507;-82
2023/05/09 06:05:02;;;;;;;9.23;7.63;;;;;;;16.19;51.08;100489.41;5113655;28;20084;-82
2023/05/09 06:07:27;;;;;;;8.60;7.70;;;;;;;16.28;51.25;100538.00;5095135;28;20387;-82
2023/05/09 06:09:53;;;;;;;10.93;8.02;;;;;;;16.29;51.40;100523.06;5113523;28;20034;-82
2023/05/09 06:12:18;;;;;;;8.02;6.80;;;;;;;16.28;51.15;100530.09;5094928;28;20110;-82
2023/05/09 06:14:44;;;;;;;8.48;7.18;;;;;;;17.55;49.48;100540.22;5113317;28;20034;-82
2023/05/09 06:17:09;;;;;;;11.05;8.45;;;;;;;18.83;47.63;100534.66;5113016;28;20471;-82
2023/05/09 06:19:34;;;;;;;8.15;7.25;;;;;;;19.02;46.36;100518.44;5113156;28;20076;-83
2023/05/09 06:22:00;;;;;;;10.35;7.95;;;;;;;18.71;46.92;100532.84;5113171;28;20507;-83
2023/05/09 06:24:25;;;;;;;7.68;6.63;;;;;;;18.71;47.92;100517.03;5094514;28;20027;-82
2023/05/09 06:26:51;;;;;;;7.80;6.97;;;;;;;19.68;45.89;100538.53;5113100;28;20391;-82
2023/05/09 06:29:16;;;;;;;9.95;6.90;;;;;;;19.67;44.81;100497.19;5113017;28;20035;-82
2023/05/09 06:31:41;;;;;;;7.90;6.72;;;;;;;20.16;43.92;100503.41;5094829;28;20024;-83
2023/05/09 06:34:07;;;;;;;9.48;6.93;;;;;;;20.26;43.34;100546.72;5113113;28;20044;-82
2023/05/09 06:36:33;;;;;;;7.95;6.70;;;;;;;19.60;44.49;100532.91;5102824;28;20031;-82
2023/05/09 06:38:58;;;;;;;8.30;6.43;;;;;;;19.78;44.51;100546.66;5103213;28;20035;-82
2023/05/09 06:41:24;;;;;;;6.60;5.93;;;;;;;19.45;44.48;100537.44;5100764;28;20483;-82
2023/05/09 06:43:51;;;;;;;6.60;5.82;;;;;;;20.44;43.46;100526.03;5082161;28;20028;-82
2023/05/09 06:46:16;;;;;;;8.65;7.28;;;;;;;22.24;40.73;100537.72;5096055;28;20447;-82
2023/05/09 06:48:41;;;;;;;8.45;6.85;;;;;;;23.38;39.85;100539.72;5099859;28;20083;-82
2023/05/09 06:51:07;;;;;;;7.75;6.70;;;;;;;23.13;39.26;100536.53;5098274;28;20028;-82
2023/05/09 06:53:32;;;;;;;9.60;6.78;;;;;;;23.74;38.74;100485.19;5111496;28;20027;-82
2023/05/09 06:55:58;;;;;;;9.55;6.57;;;;;;;26.27;36.78;100518.38;5100617;28;20107;-82
2023/05/09 06:58:23;;;;;;;7.47;6.78;;;;;;;26.69;35.76;100512.44;5108483;28;20112;-82
2023/05/09 07:00:50;;;;;;;8.48;7.30;;;;;;;26.89;35.28;100525.66;5105868;28;20479;-82
2023/05/09 07:03:15;;;;;;;8.82;7.93;;;;;;;26.21;36.32;100526.16;5108160;28;20034;-82
2023/05/09 07:05:41;;;;;;;8.23;6.85;;;;;;;27.15;34.58;100515.00;5091809;28;20024;-82
2023/05/09 07:08:06;;;;;;;7.55;6.63;;;;;;;27.48;34.71;100505.31;5109620;28;20196;-82
2023/05/09 07:10:31;;;;;;;7.20;6.50;;;;;;;28.53;33.43;100510.16;5111775;28;20020;-82
2023/05/09 07:12:57;;;;;;;7.03;6.28;;;;;;;28.80;32.58;100484.84;5099136;28;20361;-82
2023/05/09 07:15:22;;;;;;;6.15;5.55;;;;;;;27.04;33.61;100518.72;5094057;28;20532;-82
2023/05/09 07:17:48;;;;;;;7.80;7.00;;;;;;;26.47;34.82;100499.59;5091608;28;20464;-81
2023/05/09 07:20:13;;;;;;;6.80;6.07;;;;;;;27.30;34.42;100474.09;5092029;28;20027;-82
2023/05/09 07:22:38;;;;;;;6.53;5.70;;;;;;;27.93;33.37;100475.53;5091819;28;20473;-82
2023/05/09 07:25:07;;;;;;;7.78;4.97;;;;;;;29.35;32.64;100480.56;5091684;28;20048;-82
2023/05/09 07:27:33;;;;;;;5.50;5.00;;;;;;;29.06;32.28;100481.13;5073216;28;20359;-82
2023/05/09 07:29:58;;;;;;;8.30;7.18;;;;;;;27.91;33.80;100477.56;5095269;28;20020;-82
2023/05/09 07:32:23;;;;;;;8.45;7.07;;;;;;;27.27;34.13;100461.06;5095990;28;20424;-82
2023/05/09 07:34:49;;;;;;;7.90;6.97;;;;;;;27.33;34.44;100464.94;5095600;28;20043;-81
2023/05/09 07:37:14;;;;;;;6.22;5.63;;;;;;;27.58;33.69;100474.72;5095683;28;20446;-81
2023/05/09 07:39:40;;;;;;;5.50;5.00;;;;;;;28.67;32.14;100473.81;5095360;28;20070;-81
2023/05/09 07:42:05;;;;;;;6.45;5.20;;;;;;;28.28;32.77;100457.53;5095509;28;20039;-82
2023/05/09 07:44:31;;;;;;;6.75;4.72;;;;;;;30.17;30.91;100489.09;5110207;28;20034;-82
2023/05/09 07:46:58;;;;;;;6.32;5.05;;;;;;;27.40;32.38;100451.75;5116326;28;20066;-81
2023/05/09 07:49:24;;;;;;;5.30;4.28;;;;;;;27.51;32.91;100462.16;5116026;28;20031;-81
2023/05/09 07:51:49;;;;;;;6.10;4.75;;;;;;;26.84;33.17;100472.63;5116086;28;20068;-81
2023/05/09 07:54:14;;;;;;;10.13;4.55;;;;;;;25.63;33.68;100450.78;5116064;28;20028;-81
2023/05/09 07:56:40;;;;;;;5.43;4.13;;;;;;;24.86;34.67;100475.03;5115323;28;20028;-81
2023/05/09 07:59:05;;;;;;;6.85;4.78;;;;;;;24.76;35.30;100461.72;5115925;28;20417;-81
2023/05/09 08:01:30;;;;;;;5.18;4.43;;;;;;;25.26;34.73;100440.16;5115591;28;20489;-81
2023/05/09 08:03:56;;;;;;;6.60;4.35;;;;;;;25.48;34.51;100457.59;5115949;28;20546;-81
2023/05/09 08:06:21;;;;;;;5.70;4.65;;;;;;;26.27;34.38;100459.63;5115610;28;20471;-81
2023/05/09 08:08:46;;;;;;;6.60;4.53;;;;;;;26.28;34.28;100468.47;5115744;28;20031;-81
2023/05/09 08:11:12;;;;;;;5.53;4.20;;;;;;;25.84;34.29;100449.72;5116015;28;20038;-81
2023/05/09 08:13:37;;;;;;;7.28;4.72;;;;;;;24.65;34.94;100448.59;5115965;28;20045;-81
2023/05/09 08:16:03;;;;;;;5.55;4.78;;;;;;;23.84;35.76;100456.78;5116111;28;20382;-81
2023/05/09 08:18:28;;;;;;;6.78;4.80;;;;;;;24.06;36.26;100444.19;5115491;28;20031;-81
2023/05/09 08:20:53;;;;;;;6.72;4.82;;;;;;;24.10;36.01;100453.59;5116147;28;20027;-80
2023/05/09 08:23:19;;;;;;;7.85;5.07;;;;;;;22.94;36.78;100448.72;5115601;28;20024;-80
2023/05/09 08:25:44;;;;;;;6.40;4.82;;;;;;;21.03;38.96;100417.44;5115267;28;20066;-80
2023/05/09 08:28:10;;;;;;;8.30;6.15;;;;;;;20.10;40.61;100448.28;5115376;28;20360;-80
2023/05/09 08:30:35;;;;;;;9.82;5.15;;;;;;;19.63;42.96;100436.72;5115251;28;20058;-80
2023/05/09 08:33:01;;;;;;;9.48;5.28;;;;;;;18.42;43.58;100431.88;5115469;28;20053;-80
2023/05/09 08:35:26;;;;;;;7.10;5.30;;;;;;;18.01;44.37;100426.69;5115085;28;20098;-80
2023/05/09 08:37:51;;;;;;;7.55;5.00;;;;;;;17.67;45.11;100405.13;5115285;28;20028;-80
2023/05/09 08:40:17;;;;;;;7.55;5.15;;;;;;;17.59;45.72;100420.56;5115070;28;20035;-80
2023/05/09 08:42:44;;;;;;;6.57;4.97;;;;;;;17.15;46.18;100376.78;5115126;28;20039;-80
2023/05/09 08:45:13;;;;;;;6.57;5.07;;;;;;;17.05;47.46;100380.94;5115489;28;20449;-80
2023/05/09 08:47:40;;;;;;;6.53;4.97;;;;;;;17.32;47.77;100416.09;5115335;28;20030;-80
2023/05/09 08:50:06;;;;;;;7.00;5.30;;;;;;;17.16;47.45;100403.03;5096898;28;20019;-80
2023/05/09 08:52:32;;;;;;;9.90;5.15;;;;;;;16.91;47.77;100381.81;5114888;28;20026;-80
2023/05/09 08:55:05;;;;;;;10.02;5.05;;;;;;;16.91;47.55;100381.81;5114962;28;20072;-80
2023/05/09 08:57:33;;;;;;;9.05;4.30;;;;;;;16.71;47.89;100364.56;5114831;28;20020;-80
2023/05/09 08:59:59;;;;;;;7.10;4.55;;;;;;;16.82;47.41;100398.16;5115040;28;20376;-80
2023/05/09 09:02:24;;;;;;;10.10;4.55;;;;;;;16.54;47.49;100355.06;5114665;28;20024;-80
2023/05/09 09:04:50;;;;;;;9.07;4.13;;;;;;;16.49;48.08;100348.38;5114927;28;20114;-80
2023/05/09 09:07:16;;;;;;;7.75;5.45;;;;;;;16.79;49.52;100383.38;5115201;28;20492;-82
2023/05/09 09:09:47;;;;;;;7.57;5.60;;;;;;;16.59;49.88;100347.72;5114367;28;20031;-82
2023/05/09 09:12:14;;;;;;;12.70;5.95;;;;;;;16.51;50.13;100406.97;5114831;28;20363;-82
2023/05/09 09:14:45;;;;;;;7.70;5.45;;;;;;;16.17;51.08;100348.50;5114448;28;20024;-82
2023/05/09 09:17:15;;;;;;;6.73;5.60;;;;;;;16.26;51.72;100378.66;5114563;28;20415;-82
2023/05/09 09:19:43;;;;;;;7.00;5.60;;;;;;;16.26;51.34;100374.22;5114336;28;20035;-82
2023/05/09 09:22:14;;;;;;;9.82;6.32;;;;;;;16.08;51.29;100397.19;5114353;28;20122;-82
2023/05/09 09:24:40;;;;;;;7.47;5.60;;;;;;;15.75;51.83;100354.44;5114318;28;20024;-82
2023/05/09 09:27:06;;;;;;;8.07;5.47;;;;;;;15.66;53.00;100340.06;5114477;28;20042;-82
2023/05/09 09:29:32;;;;;;;8.32;5.38;;;;;;;15.81;52.35;100386.47;5114155;28;20070;-81
2023/05/09 09:32:01;;;;;;;8.88;5.40;;;;;;;15.70;52.39;100350.31;5114413;28;20147;-80
2023/05/09 09:34:26;;;;;;;7.22;5.80;;;;;;;15.90;52.17;100387.75;5114010;28;20051;-80
2023/05/09 09:36:52;;;;;;;7.13;5.72;;;;;;;15.73;52.47;100372.94;5114314;28;20065;-80
2023/05/09 09:39:18;;;;;;;8.02;5.13;;;;;;;15.70;52.68;100341.59;5114296;28;20024;-80
2023/05/09 09:41:43;;;;;;;6.90;5.65;;;;;;;15.73;52.61;100341.41;5113868;28;20348;-80
2023/05/09 09:44:14;;;;;;;7.55;5.40;;;;;;;15.78;52.93;100357.75;5114114;28;20080;-80
2023/05/09 09:46:46;;;;;;;7.70;5.25;;;;;;;15.70;53.68;100355.56;5113695;28;20027;-80
2023/05/09 09:49:12;;;;;;;10.82;8.18;;;;;;;15.68;52.07;100374.97;5113904;28;20070;-80
2023/05/09 09:51:39;;;;;;;7.57;5.47;;;;;;;15.76;52.19;100393.78;5112979;28;20032;-80
2023/05/09 09:54:09;;;;;;;10.88;6.57;;;;;;;15.84;52.59;100354.75;5113988;28;20024;-79
2023/05/09 09:56:38;;;;;;;8.55;6.03;;;;;;;15.80;53.04;100369.03;5113617;28;20416;-80
2023/05/09 09:59:11;;;;;;;9.57;6.43;;;;;;;15.68;52.80;100335.59;5113780;28;20039;-79
2023/05/09 10:02:06;;;;;;;10.25;5.45;;;;;;;15.75;52.99;100344.78;5113460;28;20019;-79
2023/05/09 10:04:37;;;;;;;6.90;6.07;;;;;;;15.53;52.57;100326.75;5113572;28;20031;-81
2023/05/09 10:07:06;;;;;;;9.50;6.50;;;;;;;15.74;52.90;100348.34;5113649;28;20062;-81
2023/05/09 10:09:32;;;;;;;8.27;6.50;;;;;;;15.47;53.30;100299.06;5113276;28;20352;-80
2023/05/09 10:12:03;;;;;;;8.23;5.20;;;;;;;15.84;52.40;100335.53;5113498;28;20031;-80
2023/05/09 10:14:30;;;;;;;6.10;4.78;;;;;;;15.95;52.24;100341.88;5113326;28;20030;-80
2023/05/09 10:16:57;;;;;;;7.10;5.60;;;;;;;16.03;51.59;100322.19;5113435;28;20031;-80
2023/05/09 10:19:25;;;;;;;8.63;5.22;;;;;;;15.73;51.98;100286.25;5113354;28;20035;-80
2023/05/09 10:21:53;;;;;;;5.57;5.07;;;;;;;15.88;51.54;100279.25;5113128;28;20016;-80
2023/05/09 10:24:54;;;;;;;8.80;5.20;;;;;;;16.08;51.64;100331.50;5113236;28;20084;-80
2023/05/09 10:27:23;;;;;;;6.03;5.15;;;;;;;16.01;52.17;100313.53;5113327;28;20110;-80
2023/05/09 10:29:56;;;;;;;6.22;4.93;;;;;;;15.80;51.14;100276.22;5112847;28;20028;-80
2023/05/09 10:32:36;;;;;;;6.00;4.72;;;;;;;16.02;50.96;100316.09;5113111;28;20027;-80
2023/05/09 10:35:05;;;;;;;8.80;5.53;;;;;;;15.86;51.15;100320.53;5113094;28;20476;-79
2023/05/09 10:37:32;;;;;;;13.15;5.95;;;;;;;15.70;51.12;100283.81;5112577;28;20059;-79
2023/05/09 10:40:01;;;;;;;7.20;4.97;;;;;;;16.03;51.28;100286.25;5112836;28;20044;-80
2023/05/09 10:42:28;;;;;;;9.57;7.20;;;;;;;16.12;51.22;100284.84;5113239;28;20020;-80
2023/05/09 10:44:54;;;;;;;4.63;4.22;;;;;;;16.13;49.77;100294.44;5112549;28;20031;-80
2023/05/09 10:47:20;;;;;;;9.80;6.82;;;;;;;15.96;50.62;100279.66;5112462;28;20031;-80
2023/05/09 10:49:47;;;;;;;9.95;4.68;;;;;;;16.03;49.87;100274.91;5112380;28;20034;-79
2023/05/09 10:52:13;;;;;;;4.40;3.80;;;;;;;15.85;49.06;100282.94;5112888;28;20069;-80
2023/05/09 10:54:38;;;;;;;6.15;4.55;;;;;;;15.92;48.96;100309.66;5108678;28;20028;-80
2023/05/09 10:57:08;;;;;;;10.73;5.82;;;;;;;15.83;49.59;100274.28;5097664;28;20117;-80
2023/05/09 10:59:41;;;;;;;8.68;5.95;;;;;;;15.78;50.18;100283.38;5100660;28;20380;-80
2023/05/09 11:02:13;;;;;;;9.98;5.38;;;;;;;15.70;50.07;100221.63;5094420;28;20096;-81
2023/05/09 11:04:39;;;;;;;9.20;4.30;;;;;;;16.13;48.79;100274.25;5092172;28;20035;-80
2023/05/09 11:07:22;;;;;;;6.10;4.93;;;;;;;16.10;48.71;100282.34;5092057;28;20034;-81
2023/05/09 11:10:07;;;;;;;9.52;4.45;;;;;;;16.02;49.69;100224.13;5096637;28;20024;-81
2023/05/09 11:12:32;;;;;;;7.43;4.05;;;;;;;16.35;49.47;100268.56;5092900;28;20077;-81
2023/05/09 11:15:04;;;;;;;6.90;3.78;;;;;;;16.52;49.95;100261.41;5094491;28;20036;-81
2023/05/09 11:17:31;;;;;;;4.30;3.65;;;;;;;16.52;49.60;100250.88;5091982;28;20031;-81
2023/05/09 11:19:57;;;;;;;6.65;4.00;;;;;;;16.80;49.73;100260.59;5092010;28;20111;-81
2023/05/09 11:22:27;;;;;;;6.50;3.33;;;;;;;16.93;47.65;100253.59;5110128;28;20028;-81